Time;durP1;ratioP1;P1;durP2;ratioP2;P2;SDS_P1;SDS_P2;PMS_P1;PMS_P2;Temp;Humidity;BMP_temperature;BMP_pressure;BME280_temperature;BME280_humidity;BME280_pressure;Samples;Min_cycle;Max_cycle;Signal;HPM_P1;HPM_P2
2023/07/23 00:01:23;;;;;;;1999.90;999.90;;;18.20;99.90;;;;;;5028146;28;20439;-71
2023/07/23 00:03:50;;;;;;;1999.90;999.90;;;18.10;99.90;;;;;;5028198;28;20437;-71
2023/07/23 00:06:17;;;;;;;1999.90;999.90;;;18.00;99.90;;;;;;5029040;28;20435;-70
2023/07/23 00:08:43;;;;;;;1999.90;999.90;;;17.90;99.90;;;;;;5029095;28;20458;-70
2023/07/23 00:11:11;;;;;;;1999.90;999.90;;;17.70;99.90;;;;;;5028416;28;20439;-69
2023/07/23 00:13:38;;;;;;;1999.90;999.90;;;17.60;99.90;;;;;;5024247;28;20431;-71
2023/07/23 00:16:05;;;;;;;1999.90;999.90;;;17.50;99.90;;;;;;5028087;28;20439;-70
2023/07/23 00:18:32;;;;;;;1999.90;999.90;;;17.50;99.90;;;;;;5028634;28;20434;-68
2023/07/23 00:20:59;;;;;;;1999.90;999.90;;;17.40;99.90;;;;;;5027745;28;20497;-69
2023/07/23 00:23:25;;;;;;;1999.90;999.90;;;17.30;99.90;;;;;;5028304;28;20426;-71
2023/07/23 00:25:54;;;;;;;1999.90;999.90;;;17.20;99.90;;;;;;5026476;28;20427;-68
2023/07/23 00:28:22;;;;;;;1999.90;999.90;;;17.20;99.90;;;;;;5031619;28;20430;-68
2023/07/23 00:30:49;;;;;;;1999.90;999.90;;;17.10;99.90;;;;;;5031998;28;20444;-67
2023/07/23 00:33:16;;;;;;;1999.90;999.90;;;17.10;99.90;;;;;;5032144;28;20932;-70
2023/07/23 00:35:42;;;;;;;1999.90;999.90;;;17.20;99.90;;;;;;5030919;28;20426;-69
2023/07/23 00:38:09;;;;;;;1999.90;999.90;;;17.10;99.90;;;;;;5032241;28;20435;-68
2023/07/23 00:40:36;;;;;;;1999.90;999.90;;;17.20;99.90;;;;;;5031954;28;20430;-69
2023/07/23 00:43:02;;;;;;;1999.90;999.90;;;17.10;99.90;;;;;;5032138;28;20525;-69
2023/07/23 00:45:30;;;;;;;1999.90;999.90;;;17.10;99.90;;;;;;5031786;28;20480;-69
2023/07/23 00:47:57;;;;;;;1999.90;999.90;;;17.10;99.90;;;;;;5029750;28;20440;-69
2023/07/23 00:50:25;;;;;;;1999.90;999.90;;;17.10;99.90;;;;;;5031814;28;20430;-67
2023/07/23 00:52:52;;;;;;;1999.90;999.90;;;16.90;99.90;;;;;;5031896;28;20588;-69
2023/07/23 00:55:19;;;;;;;1999.90;999.90;;;16.90;99.90;;;;;;5032005;28;20438;-72
2023/07/23 00:57:46;;;;;;;1999.90;999.90;;;16.90;99.90;;;;;;5032053;28;20435;-70
2023/07/23 01:00:13;;;;;;;1999.90;999.90;;;16.90;99.90;;;;;;5030696;28;20432;-69
2023/07/23 01:02:41;;;;;;;1999.90;999.90;;;16.90;99.90;;;;;;5029780;28;20435;-69
2023/07/23 01:05:08;;;;;;;1999.90;999.90;;;17.00;99.90;;;;;;5030892;28;20433;-70
2023/07/23 01:07:35;;;;;;;1999.90;999.90;;;16.90;99.90;;;;;;5031831;28;20875;-69
2023/07/23 01:10:03;;;;;;;1999.90;999.90;;;16.80;99.90;;;;;;5032156;28;20438;-69
2023/07/23 01:12:31;;;;;;;1999.90;999.90;;;16.90;99.90;;;;;;5031209;28;20431;-70
2023/07/23 01:14:58;;;;;;;1999.90;999.90;;;16.80;99.90;;;;;;5031217;28;20419;-69
2023/07/23 01:17:25;;;;;;;1999.90;999.90;;;16.90;99.90;;;;;;5030590;28;20470;-70
2023/07/23 01:20:04;;;;;;;1999.90;999.90;;;16.90;99.90;;;;;;5031525;28;20439;-69
2023/07/23 01:22:32;;;;;;;1999.90;999.90;;;16.80;99.90;;;;;;5031221;28;20458;-70
2023/07/23 01:24:59;;;;;;;1999.90;999.90;;;16.80;99.90;;;;;;5029990;28;20463;-68
2023/07/23 01:27:26;;;;;;;1999.90;999.90;;;16.60;99.90;;;;;;5031626;28;20439;-68
2023/07/23 01:29:53;;;;;;;1999.90;999.90;;;16.60;99.90;;;;;;5030136;28;20457;-71
2023/07/23 01:32:19;;;;;;;1999.90;999.90;;;16.60;99.90;;;;;;5031588;28;20951;-70
2023/07/23 01:34:46;;;;;;;1999.90;999.90;;;16.70;99.90;;;;;;5031064;28;20442;-70
2023/07/23 01:37:13;;;;;;;1999.90;999.90;;;16.80;99.90;;;;;;5030625;28;20984;-73
2023/07/23 01:39:44;;;;;;;1999.90;999.90;;;16.80;99.90;;;;;;5029975;28;20438;-69
2023/07/23 01:42:12;;;;;;;1999.90;999.90;;;16.80;99.90;;;;;;5031373;28;20438;-70
2023/07/23 01:44:39;;;;;;;1999.90;999.90;;;16.50;99.90;;;;;;5030847;28;20431;-72
2023/07/23 01:47:05;;;;;;;1999.90;999.90;;;16.50;99.90;;;;;;5031065;28;20435;-70
2023/07/23 01:49:32;;;;;;;1999.90;999.90;;;16.60;99.90;;;;;;5029455;28;20439;-69
2023/07/23 01:51:59;;;;;;;1999.90;999.90;;;16.70;99.90;;;;;;5030824;28;20431;-70
2023/07/23 01:54:25;;;;;;;1999.90;999.90;;;16.70;99.90;;;;;;5030829;28;20427;-70
2023/07/23 01:56:54;;;;;;;1999.90;999.90;;;16.70;99.90;;;;;;5030086;28;20431;-71
2023/07/23 01:59:20;;;;;;;1999.90;999.90;;;16.60;99.90;;;;;;5030081;28;20529;-71
2023/07/23 02:01:47;;;;;;;1999.90;999.90;;;16.60;99.90;;;;;;5030542;28;20435;-70
2023/07/23 02:04:14;;;;;;;1999.90;999.90;;;16.60;99.90;;;;;;5030651;28;20442;-70
2023/07/23 02:06:40;;;;;;;1999.90;999.90;;;16.30;99.90;;;;;;5030395;28;20434;-70
2023/07/23 02:09:07;;;;;;;1999.90;999.90;;;16.50;99.90;;;;;;5031061;28;20526;-67
2023/07/23 02:11:34;;;;;;;1999.90;999.90;;;16.40;99.90;;;;;;5029231;28;20442;-68
2023/07/23 02:14:02;;;;;;;1999.90;999.90;;;16.40;99.90;;;;;;5027684;28;20423;-70
2023/07/23 02:16:29;;;;;;;1999.90;999.90;;;16.50;99.90;;;;;;5030634;28;20462;-73
2023/07/23 02:18:57;;;;;;;1999.90;999.90;;;16.90;99.90;;;;;;5030424;28;20438;-73
2023/07/23 02:21:23;;;;;;;1999.90;999.90;;;16.90;99.90;;;;;;5030523;28;20462;-72
2023/07/23 02:23:51;;;;;;;1999.90;999.90;;;17.00;99.90;;;;;;5028986;28;20438;-70
2023/07/23 02:26:18;;;;;;;1999.90;999.90;;;16.90;99.90;;;;;;5030642;28;20439;-71
2023/07/23 02:28:44;;;;;;;1999.90;999.90;;;16.80;99.90;;;;;;5029103;28;20435;-69
2023/07/23 02:31:12;;;;;;;1999.90;999.90;;;16.80;99.90;;;;;;5030349;28;20442;-68
2023/07/23 02:33:39;;;;;;;1999.90;999.90;;;16.80;99.90;;;;;;5030306;28;20437;-70
2023/07/23 02:36:06;;;;;;;1999.90;999.90;;;16.70;99.90;;;;;;5028921;28;20770;-70
2023/07/23 02:38:32;;;;;;;1999.90;999.90;;;17.00;99.90;;;;;;5028961;28;20465;-69
2023/07/23 02:41:00;;;;;;;1999.90;999.90;;;17.00;99.90;;;;;;5029720;28;20999;-70
2023/07/23 02:43:26;;;;;;;1999.90;999.90;;;17.10;99.90;;;;;;5030463;28;21089;-72
2023/07/23 02:45:53;;;;;;;1999.90;999.90;;;17.10;99.90;;;;;;5030744;28;20435;-72
2023/07/23 02:48:21;;;;;;;1999.90;999.90;;;17.20;99.90;;;;;;5028640;28;20908;-72
2023/07/23 02:50:48;;;;;;;1999.90;999.90;;;17.20;99.90;;;;;;5029030;28;20920;-72
2023/07/23 02:53:14;;;;;;;1999.90;999.90;;;17.20;99.90;;;;;;5029372;28;20774;-70
2023/07/23 02:55:41;;;;;;;1999.90;999.90;;;17.10;99.90;;;;;;5029767;28;20505;-70
2023/07/23 02:58:08;;;;;;;1999.90;999.90;;;16.90;99.90;;;;;;5029210;28;20438;-69
2023/07/23 03:00:34;;;;;;;1999.90;999.90;;;16.70;99.90;;;;;;5029050;28;20434;-70
2023/07/23 03:03:01;;;;;;;1999.90;999.90;;;16.40;99.90;;;;;;5029687;28;20439;-69
2023/07/23 03:05:30;;;;;;;1999.90;999.90;;;16.40;99.90;;;;;;5029605;28;20467;-70
2023/07/23 03:07:56;;;;;;;1999.90;999.90;;;16.30;99.90;;;;;;5027828;28;20441;-70
2023/07/23 03:10:23;;;;;;;1999.90;999.90;;;16.40;99.90;;;;;;5028916;28;20441;-68
2023/07/23 03:12:49;;;;;;;1999.90;999.90;;;16.50;99.90;;;;;;5028252;28;20438;-70
2023/07/23 03:15:16;;;;;;;1999.90;999.90;;;16.60;99.90;;;;;;5029317;28;20570;-70
2023/07/23 03:17:43;;;;;;;1999.90;999.90;;;16.50;99.90;;;;;;5028047;28;20437;-72
2023/07/23 03:20:10;;;;;;;1999.90;999.90;;;16.50;99.90;;;;;;5029327;28;20438;-69
2023/07/23 03:22:39;;;;;;;1999.90;999.90;;;16.50;99.90;;;;;;5028343;28;20461;-70
2023/07/23 03:25:06;;;;;;;1999.90;999.90;;;16.50;99.90;;;;;;5027477;28;20797;-70
2023/07/23 03:27:33;;;;;;;1999.90;999.90;;;16.60;99.90;;;;;;5029050;28;20433;-68
2023/07/23 03:29:59;;;;;;;1999.90;999.90;;;16.60;99.90;;;;;;5028602;28;20817;-69
2023/07/23 03:32:26;;;;;;;1999.90;999.90;;;16.50;99.90;;;;;;5029081;28;20435;-69
2023/07/23 03:34:53;;;;;;;1999.90;999.90;;;16.40;99.90;;;;;;5028060;28;20426;-68
2023/07/23 03:37:19;;;;;;;1999.90;999.90;;;16.30;99.90;;;;;;5027122;28;20439;-72
2023/07/23 03:39:47;;;;;;;1999.90;999.90;;;16.30;99.90;;;;;;5028901;28;20440;-68
2023/07/23 03:42:14;;;;;;;1999.90;999.90;;;16.30;99.90;;;;;;5047788;22;20928;-74
2023/07/23 03:44:41;;;;;;;1999.90;999.90;;;16.20;99.90;;;;;;5026953;28;20431;-75
2023/07/23 03:47:11;;;;;;;1999.90;999.90;;;16.10;99.90;;;;;;5027946;28;20442;-74
2023/07/23 03:49:38;;;;;;;1999.90;999.90;;;16.20;99.90;;;;;;5027969;28;20446;-75
2023/07/23 03:52:06;;;;;;;1999.90;999.90;;;16.20;99.90;;;;;;5027921;28;20442;-73
2023/07/23 03:54:32;;;;;;;1999.90;999.90;;;16.30;99.90;;;;;;5027998;28;20434;-76
2023/07/23 03:57:01;;;;;;;1999.90;999.90;;;16.20;99.90;;;;;;5028979;28;20504;-74
2023/07/23 03:59:30;;;;;;;1999.90;999.90;;;16.30;99.90;;;;;;5028710;28;20506;-74
2023/07/23 04:01:56;;;;;;;1999.90;999.90;;;16.40;99.90;;;;;;5023941;28;20506;-74
2023/07/23 04:04:24;;;;;;;1999.90;999.90;;;16.40;99.90;;;;;;5028613;28;22195;-75
2023/07/23 04:06:51;;;;;;;1999.90;999.90;;;16.40;99.90;;;;;;5028835;28;20430;-74
2023/07/23 04:09:18;;;;;;;1999.90;999.90;;;16.30;99.90;;;;;;5028749;28;20434;-74
2023/07/23 04:11:45;;;;;;;1999.90;999.90;;;16.40;99.90;;;;;;5027360;28;20439;-74
2023/07/23 04:14:13;;;;;;;1999.90;999.90;;;16.40;99.90;;;;;;5027327;28;20454;-74
2023/07/23 04:16:40;;;;;;;1999.90;999.90;;;16.60;99.90;;;;;;5028527;28;20947;-74
2023/07/23 04:19:07;;;;;;;1999.90;999.90;;;16.50;99.90;;;;;;5028430;28;20434;-74
2023/07/23 04:21:33;;;;;;;1999.90;999.90;;;16.50;99.90;;;;;;5027632;28;20935;-74
2023/07/23 04:24:00;;;;;;;1999.90;999.90;;;16.50;99.90;;;;;;5028550;28;20924;-75
2023/07/23 04:26:28;;;;;;;1999.90;999.90;;;16.60;99.90;;;;;;5027186;28;20435;-74
2023/07/23 04:28:55;;;;;;;1999.90;999.90;;;16.80;99.90;;;;;;5028502;28;20465;-72
2023/07/23 04:31:24;;;;;;;1999.90;999.90;;;16.60;99.90;;;;;;5027647;28;20446;-74
2023/07/23 04:33:51;;;;;;;1999.90;999.90;;;16.60;99.90;;;;;;5027959;28;20431;-74
2023/07/23 04:36:18;;;;;;;1999.90;999.90;;;16.60;99.90;;;;;;5026756;28;20936;-73
2023/07/23 04:38:45;;;;;;;1999.90;999.90;;;16.60;99.90;;;;;;5027641;28;20844;-76
2023/07/23 04:41:12;;;;;;;1999.90;999.90;;;16.50;99.90;;;;;;5027408;28;20938;-74
2023/07/23 04:43:40;;;;;;;1999.90;999.90;;;16.60;99.90;;;;;;5025656;28;20429;-77
2023/07/23 04:46:07;;;;;;;1999.90;999.90;;;16.70;99.90;;;;;;5028323;28;20438;-74
2023/07/23 04:48:36;;;;;;;1999.90;999.90;;;16.70;99.90;;;;;;5026571;28;20434;-74
2023/07/23 04:51:05;;;;;;;1999.90;999.90;;;16.70;99.90;;;;;;5028531;28;20446;-72
2023/07/23 04:53:32;;;;;;;1999.90;999.90;;;16.80;99.90;;;;;;5026722;28;20800;-74
2023/07/23 04:56:00;;;;;;;1999.90;999.90;;;16.80;99.90;;;;;;5028183;28;20458;-74
2023/07/23 04:58:27;;;;;;;1999.90;999.90;;;16.80;99.90;;;;;;5027293;28;20462;-74
2023/07/23 05:00:54;;;;;;;1999.90;999.90;;;17.20;99.90;;;;;;5027635;28;20442;-76
2023/07/23 05:03:21;;;;;;;1999.90;999.90;;;16.90;99.90;;;;;;5027007;28;20434;-73
2023/07/23 05:05:50;;;;;;;1999.90;999.90;;;17.00;99.90;;;;;;5025098;28;20978;-74
2023/07/23 05:08:17;;;;;;;1999.90;999.90;;;17.10;99.90;;;;;;5027487;28;20458;-74
2023/07/23 05:10:44;;;;;;;1999.90;999.90;;;17.10;99.90;;;;;;5028269;28;20492;-72
2023/07/23 05:13:12;;;;;;;1999.90;999.90;;;17.20;99.90;;;;;;5028957;28;20456;-76
2023/07/23 05:15:38;;;;;;;1999.90;999.90;;;17.20;99.90;;;;;;5029397;28;20426;-73
2023/07/23 05:18:05;;;;;;;1999.90;999.90;;;17.10;99.90;;;;;;5032039;28;20465;-74
2023/07/23 05:20:32;;;;;;;1999.90;999.90;;;17.10;99.90;;;;;;5027267;28;20442;-72
2023/07/23 05:23:00;;;;;;;1999.90;999.90;;;17.10;99.90;;;;;;5028265;28;20917;-73
2023/07/23 05:25:26;;;;;;;1999.90;999.90;;;17.10;99.90;;;;;;5030394;28;20438;-73
2023/07/23 05:27:53;;;;;;;1999.90;999.90;;;17.10;99.90;;;;;;5031670;28;20439;-73
2023/07/23 05:30:21;;;;;;;1999.90;999.90;;;17.10;99.90;;;;;;5031162;28;20465;-73
2023/07/23 05:32:48;;;;;;;1999.90;999.90;;;17.20;99.90;;;;;;5030333;28;21040;-74
2023/07/23 05:35:15;;;;;;;1999.90;999.90;;;17.30;99.90;;;;;;5031420;28;20475;-73
2023/07/23 05:37:41;;;;;;;1999.90;999.90;;;17.30;99.90;;;;;;5031854;28;20435;-74
2023/07/23 05:40:10;;;;;;;1999.90;999.90;;;17.40;99.90;;;;;;5031583;28;20446;-76
2023/07/23 05:42:37;;;;;;;1999.90;999.90;;;17.50;99.90;;;;;;5029291;28;20431;-73
2023/07/23 05:45:04;;;;;;;1999.90;999.90;;;17.70;99.90;;;;;;5031511;28;20951;-74
2023/07/23 05:47:30;;;;;;;1999.90;999.90;;;17.70;99.90;;;;;;5031374;28;20503;-74
2023/07/23 05:49:57;;;;;;;1999.90;999.90;;;17.70;99.90;;;;;;5031639;28;20434;-73
2023/07/23 05:52:24;;;;;;;1999.90;999.90;;;17.80;99.90;;;;;;5030972;28;20840;-73
2023/07/23 05:54:50;;;;;;;1999.90;999.90;;;17.90;99.90;;;;;;5030482;28;20438;-74
2023/07/23 05:57:18;;;;;;;1999.90;999.90;;;18.10;99.90;;;;;;5030710;28;20855;-73
2023/07/23 05:59:45;;;;;;;1999.90;999.90;;;18.20;99.90;;;;;;5031778;28;20438;-75
2023/07/23 06:02:12;;;;;;;1999.90;999.90;;;18.30;99.90;;;;;;5030442;28;20431;-74
2023/07/23 06:04:39;;;;;;;1999.90;999.90;;;18.40;99.90;;;;;;5030734;28;20458;-73
2023/07/23 06:07:06;;;;;;;1999.90;999.90;;;18.60;99.90;;;;;;5030312;28;20439;-75
2023/07/23 06:58:37;;;;;;;1999.90;999.90;;;20.40;99.90;;;;;;5088300;27;20414;-69
2023/07/23 07:01:06;;;;;;;1999.90;999.90;;;21.40;99.90;;;;;;4993415;28;1906492;-71
2023/07/23 07:03:32;;;;;;;1999.90;999.90;;;21.70;99.90;;;;;;5050603;28;20427;-71
2023/07/23 07:05:59;;;;;;;1999.90;999.90;;;22.10;99.90;;;;;;5056068;28;20441;-69
2023/07/23 07:08:27;;;;;;;1999.90;999.90;;;22.00;99.90;;;;;;5057817;28;20432;-70
2023/07/23 07:10:58;;;;;;;1999.90;999.90;;;22.10;99.90;;;;;;5060610;28;20428;-70
2023/07/23 07:13:24;;;;;;;1999.90;999.90;;;22.10;99.90;;;;;;5065854;28;20502;-73
2023/07/23 07:15:52;;;;;;;1999.90;999.90;;;22.20;99.90;;;;;;5058013;28;20424;-71
2023/07/23 07:18:19;;;;;;;1999.90;999.90;;;22.10;99.90;;;;;;5053974;28;20432;-75
2023/07/23 07:20:53;;;;;;;1999.90;999.90;;;22.40;99.90;;;;;;5060792;28;20436;-74
2023/07/23 07:23:20;;;;;;;1999.90;999.90;;;22.60;99.90;;;;;;5053671;28;20424;-74
2023/07/23 07:25:47;;;;;;;1999.90;999.90;;;22.50;99.50;;;;;;5061554;28;20807;-74
2023/07/23 07:28:14;;;;;;;1999.90;999.90;;;22.50;99.40;;;;;;5054606;28;20426;-71
2023/07/23 07:30:41;;;;;;;1999.90;999.90;;;22.40;99.00;;;;;;5055164;28;20463;-71
2023/07/23 07:33:09;;;;;;;1999.90;999.90;;;22.10;99.30;;;;;;5056313;28;20426;-71
2023/07/23 07:35:35;;;;;;;1999.90;999.90;;;22.40;99.50;;;;;;5061354;28;20432;-71
2023/07/23 07:38:03;;;;;;;1999.90;999.90;;;22.70;99.60;;;;;;5060329;28;20801;-71
2023/07/23 07:40:30;;;;;;;1999.90;999.90;;;22.90;98.50;;;;;;5065994;28;20437;-72
2023/07/23 07:42:57;;;;;;;1999.90;999.90;;;23.00;98.20;;;;;;5061404;28;20434;-72
2023/07/23 07:45:24;;;;;;;1999.90;999.90;;;23.20;98.50;;;;;;5058717;28;20466;-72
2023/07/23 07:47:51;;;;;;;1999.90;999.90;;;23.40;97.40;;;;;;5061517;28;20437;-74
2023/07/23 07:50:19;;;;;;;1999.90;999.90;;;22.90;97.40;;;;;;5056169;28;20916;-74
2023/07/23 07:52:47;;;;;;;1999.90;999.90;;;23.00;97.70;;;;;;5064033;28;20529;-74
2023/07/23 07:55:13;;;;;;;1999.90;999.90;;;22.80;97.50;;;;;;5060738;28;20433;-73
2023/07/23 07:57:41;;;;;;;1999.90;999.90;;;22.50;98.00;;;;;;5058174;28;20427;-74
2023/07/23 08:00:08;;;;;;;1999.90;999.90;;;22.90;98.30;;;;;;5041118;28;20506;-73
2023/07/23 08:02:36;;;;;;;1999.90;999.90;;;22.80;98.40;;;;;;5043774;28;20433;-74
2023/07/23 08:05:03;;;;;;;1999.90;999.90;;;22.90;98.10;;;;;;5046391;28;20442;-74
2023/07/23 08:07:31;;;;;;;1999.90;999.90;;;23.00;98.10;;;;;;5051165;28;20429;-73
2023/07/23 08:10:00;;;;;;;1999.90;999.90;;;22.80;98.60;;;;;;5051620;28;20429;-74
2023/07/23 08:12:27;;;;;;;1999.90;999.90;;;22.70;99.10;;;;;;5038220;28;20429;-71
2023/07/23 08:14:56;;;;;;;1999.90;999.90;;;22.90;99.30;;;;;;5040226;28;20431;-71
2023/07/23 08:17:23;;;;;;;1999.90;999.90;;;23.00;98.10;;;;;;5048857;28;20429;-71
2023/07/23 08:19:51;;;;;;;1999.90;999.90;;;22.90;97.90;;;;;;5046415;28;20437;-70
2023/07/23 08:22:18;;;;;;;1999.90;999.90;;;23.00;98.60;;;;;;5044744;28;20425;-71
2023/07/23 08:24:46;;;;;;;1999.90;999.90;;;23.30;98.20;;;;;;5037250;28;20801;-70
2023/07/23 08:27:19;;;;;;;1999.90;999.90;;;23.40;98.00;;;;;;5039872;28;20520;-73
2023/07/23 08:29:46;;;;;;;1999.90;999.90;;;23.60;98.10;;;;;;5044458;28;20453;-73
2023/07/23 08:32:16;;;;;;;1999.90;999.90;;;23.70;98.10;;;;;;5046838;28;20481;-72
2023/07/23 08:34:43;;;;;;;1999.90;999.90;;;23.60;97.40;;;;;;5043992;28;20500;-70
2023/07/23 08:37:12;;;;;;;1999.90;999.90;;;23.10;97.70;;;;;;5035914;28;20940;-72
2023/07/23 08:39:39;;;;;;;1999.90;999.90;;;23.30;98.40;;;;;;5043360;28;20450;-70
2023/07/23 08:42:48;;;;;;;1999.90;999.90;;;23.40;98.00;;;;;;5044541;28;20438;-72
2023/07/23 08:45:43;;;;;;;1999.90;999.90;;;23.60;97.30;;;;;;5051909;28;20447;-73
2023/07/23 08:48:16;;;;;;;1999.90;999.90;;;23.30;97.90;;;;;;5050002;28;20425;-72
2023/07/23 08:50:44;;;;;;;1999.90;999.90;;;23.50;98.90;;;;;;5038144;28;20516;-72
2023/07/23 08:53:13;;;;;;;1999.90;999.90;;;23.60;98.10;;;;;;5039156;28;20427;-72
2023/07/23 08:55:42;;;;;;;1999.90;999.90;;;23.30;98.30;;;;;;5044739;28;20521;-71
2023/07/23 08:58:13;;;;;;;1999.90;999.90;;;23.70;97.90;;;;;;5048407;28;20429;-72
2023/07/23 09:00:40;;;;;;;1999.90;999.90;;;24.00;98.60;;;;;;5050649;28;20433;-71
2023/07/23 09:03:08;;;;;;;1999.90;999.90;;;24.20;97.40;;;;;;5042648;28;20861;-72
2023/07/23 09:05:36;;;;;;;1999.90;999.90;;;24.40;97.50;;;;;;5051381;28;20892;-72
2023/07/23 09:08:03;;;;;;;1999.90;999.90;;;24.30;97.50;;;;;;5050766;28;20475;-72
2023/07/23 09:10:30;;;;;;;1999.90;999.90;;;24.40;97.40;;;;;;5050507;28;20425;-71
2023/07/23 09:12:56;;;;;;;1999.90;999.90;;;24.50;96.70;;;;;;5050788;28;20428;-73
2023/07/23 09:15:24;;;;;;;1999.90;999.90;;;24.00;96.20;;;;;;5045813;28;20441;-72
2023/07/23 09:17:52;;;;;;;1999.90;999.90;;;24.30;97.10;;;;;;5046619;28;20911;-71
2023/07/23 09:20:19;;;;;;;1999.90;999.90;;;24.30;96.10;;;;;;5045013;28;20431;-71
2023/07/23 09:22:46;;;;;;;1999.90;999.90;;;24.20;96.00;;;;;;5047169;28;20440;-72
2023/07/23 09:25:13;;;;;;;1999.90;999.90;;;24.10;96.40;;;;;;5046432;28;20433;-71
2023/07/23 09:27:42;;;;;;;1999.90;999.90;;;23.70;94.70;;;;;;5043830;28;20425;-71
2023/07/23 09:30:17;;;;;;;1999.90;999.90;;;24.10;94.10;;;;;;5052116;28;20452;-70
2023/07/23 09:32:55;;;;;;;1999.90;999.90;;;23.60;93.60;;;;;;5044920;28;20439;-72
2023/07/23 09:35:24;;;;;;;1999.90;999.90;;;23.80;94.90;;;;;;5037084;28;20928;-72
2023/07/23 09:37:57;;;;;;;1999.90;999.90;;;24.10;95.20;;;;;;5037491;28;20434;-71
2023/07/23 09:40:33;;;;;;;1999.90;999.90;;;24.50;95.40;;;;;;5046165;28;20543;-72
2023/07/23 09:43:00;;;;;;;1999.90;999.90;;;24.40;94.60;;;;;;5043440;28;20441;-72
2023/07/23 09:45:29;;;;;;;1999.90;999.90;;;24.60;94.60;;;;;;5034639;28;20437;-72
2023/07/23 09:47:58;;;;;;;1999.90;999.90;;;24.60;93.90;;;;;;5050874;28;20428;-72
2023/07/23 09:50:24;;;;;;;1999.90;999.90;;;24.20;93.40;;;;;;5042075;28;20421;-72
2023/07/23 09:52:52;;;;;;;1999.90;999.90;;;24.00;93.80;;;;;;5042840;28;20518;-70
2023/07/23 09:55:20;;;;;;;1999.90;999.90;;;23.80;93.80;;;;;;5048139;28;20445;-72
2023/07/23 09:57:49;;;;;;;1999.90;999.90;;;23.50;94.50;;;;;;5043921;28;20431;-72
2023/07/23 10:00:16;;;;;;;1999.90;999.90;;;23.30;94.40;;;;;;5036038;28;20442;-72
2023/07/23 10:02:46;;;;;;;1999.90;999.90;;;23.30;94.10;;;;;;5036917;28;20436;-72
2023/07/23 10:05:15;;;;;;;1999.90;999.90;;;23.20;94.30;;;;;;5046918;28;20439;-72
2023/07/23 10:07:43;;;;;;;1999.90;999.90;;;23.20;94.20;;;;;;5049856;28;21001;-72
2023/07/23 10:10:10;;;;;;;1999.90;999.90;;;23.10;94.40;;;;;;5035063;28;20442;-72
2023/07/23 10:12:37;;;;;;;1999.90;999.90;;;23.10;94.60;;;;;;5042126;28;20437;-71
2023/07/23 10:15:04;;;;;;;1999.90;999.90;;;23.20;94.50;;;;;;5043247;28;20978;-73
2023/07/23 10:17:32;;;;;;;1999.90;999.90;;;23.10;94.90;;;;;;5046602;28;20436;-72
2023/07/23 10:19:59;;;;;;;1999.90;999.90;;;23.30;94.60;;;;;;5041962;28;20438;-71
2023/07/23 10:22:34;;;;;;;1999.90;999.90;;;23.30;94.80;;;;;;5035780;28;20421;-71
2023/07/23 10:25:00;;;;;;;1999.90;999.90;;;23.50;94.50;;;;;;5036394;28;20423;-72
2023/07/23 10:27:27;;;;;;;1999.90;999.90;;;23.70;94.80;;;;;;5030683;28;20802;-72
2023/07/23 10:30:17;;;;;;;1999.90;999.90;;;23.70;93.50;;;;;;5044588;28;20440;-72
2023/07/23 10:32:45;;;;;;;1999.90;999.90;;;23.80;92.90;;;;;;5032278;28;20510;-70
2023/07/23 10:35:12;;;;;;;1999.90;999.90;;;24.10;93.50;;;;;;5033862;28;20427;-72
2023/07/23 10:37:40;;;;;;;1999.90;999.90;;;23.80;93.10;;;;;;5030548;28;21100;-72
2023/07/23 10:40:08;;;;;;;1999.90;999.90;;;23.80;93.00;;;;;;5030979;28;20433;-72
2023/07/23 10:42:39;;;;;;;1999.90;999.90;;;23.80;92.80;;;;;;5030369;28;20918;-72
2023/07/23 10:45:24;;;;;;;1999.90;999.90;;;23.90;92.30;;;;;;5036932;28;20506;-73
2023/07/23 10:47:51;;;;;;;1999.90;999.90;;;23.90;92.30;;;;;;5036795;28;20477;-71
2023/07/23 10:50:19;;;;;;;1999.90;999.90;;;24.00;92.10;;;;;;5037050;28;20440;-71
2023/07/23 10:52:49;;;;;;;1999.90;999.90;;;24.10;91.20;;;;;;5041739;28;20431;-73
2023/07/23 10:55:33;;;;;;;1999.90;999.90;;;24.00;92.00;;;;;;5030643;28;20492;-73
2023/07/23 10:58:02;;;;;;;1999.90;999.90;;;24.30;91.40;;;;;;5040279;28;20455;-70
2023/07/23 11:00:28;;;;;;;1999.90;999.90;;;24.50;90.60;;;;;;5045484;28;20559;-72
2023/07/23 11:02:57;;;;;;;1999.90;999.90;;;24.40;90.60;;;;;;5045750;28;20433;-72
2023/07/23 11:05:25;;;;;;;1999.90;999.90;;;24.50;89.70;;;;;;5047193;28;20789;-69
2023/07/23 11:08:14;;;;;;;1999.90;999.90;;;24.40;90.20;;;;;;5033285;28;20434;-72
2023/07/23 11:10:54;;;;;;;1999.90;999.90;;;24.40;88.60;;;;;;5046183;28;20436;-72
2023/07/23 11:13:22;;;;;;;1999.90;999.90;;;24.60;87.90;;;;;;5046764;28;20438;-71
2023/07/23 11:15:48;;;;;;;1999.90;999.90;;;24.40;87.70;;;;;;5044556;28;20449;-71
2023/07/23 11:18:15;;;;;;;1999.90;999.90;;;24.30;88.60;;;;;;5033515;28;20466;-72
2023/07/23 11:20:46;;;;;;;1999.90;999.90;;;24.40;89.70;;;;;;5044617;28;20437;-72
2023/07/23 11:23:14;;;;;;;1999.90;999.90;;;24.20;91.70;;;;;;5052301;28;20539;-70
2023/07/23 11:25:41;;;;;;;1999.90;999.90;;;24.40;92.70;;;;;;5055547;28;20431;-72
2023/07/23 11:28:08;;;;;;;1999.90;999.90;;;24.10;93.20;;;;;;5043483;28;20431;-72
2023/07/23 11:30:34;;;;;;;1999.90;999.90;;;23.80;94.50;;;;;;5043941;28;20433;-71
2023/07/23 11:33:03;;;;;;;1999.90;999.90;;;23.30;94.30;;;;;;5048075;28;20924;-71
2023/07/23 11:35:31;;;;;;;1999.90;999.90;;;22.70;95.10;;;;;;5045651;28;20437;-73
2023/07/23 11:38:01;;;;;;;1999.90;999.90;;;22.50;96.30;;;;;;5044425;28;20429;-70
2023/07/23 11:40:30;;;;;;;1999.90;999.90;;;22.50;96.70;;;;;;5041985;28;20437;-73
2023/07/23 11:42:56;;;;;;;1999.90;999.90;;;22.40;97.10;;;;;;5045573;28;20499;-72
2023/07/23 11:45:23;;;;;;;1999.90;999.90;;;22.40;97.30;;;;;;5048865;28;20515;-72
2023/07/23 11:47:52;;;;;;;1999.90;999.90;;;22.40;97.60;;;;;;5039961;28;20431;-73
2023/07/23 11:50:20;;;;;;;1999.90;999.90;;;22.30;97.90;;;;;;5040859;28;20441;-71
2023/07/23 11:52:48;;;;;;;1999.90;999.90;;;22.50;98.30;;;;;;5034015;28;20441;-73
2023/07/23 11:55:22;;;;;;;1999.90;999.90;;;22.50;98.10;;;;;;5041258;28;20444;-71
2023/07/23 11:57:55;;;;;;;1999.90;999.90;;;22.60;98.50;;;;;;5048060;28;20805;-71
2023/07/23 12:00:26;;;;;;;1999.90;999.90;;;22.50;98.40;;;;;;5034546;28;20453;-73
2023/07/23 12:02:53;;;;;;;1999.90;999.90;;;22.60;98.40;;;;;;5045519;28;20434;-72
2023/07/23 12:05:20;;;;;;;1999.90;999.90;;;22.50;98.40;;;;;;5062468;28;20434;-73
2023/07/23 12:07:46;;;;;;;1999.90;999.90;;;22.60;98.30;;;;;;5035246;28;20438;-73
2023/07/23 12:10:14;;;;;;;1999.90;999.90;;;22.70;98.50;;;;;;5044368;28;20954;-72
2023/07/23 12:12:41;;;;;;;1999.90;999.90;;;22.90;98.80;;;;;;5044156;28;20947;-73
2023/07/23 12:15:12;;;;;;;1999.90;999.90;;;22.80;99.00;;;;;;5048975;28;20429;-72
2023/07/23 12:17:39;;;;;;;1999.90;999.90;;;22.90;99.10;;;;;;5039873;28;20434;-73
2023/07/23 12:20:08;;;;;;;1999.90;999.90;;;22.80;98.60;;;;;;5044311;28;20914;-72
2023/07/23 12:22:34;;;;;;;1999.90;999.90;;;22.70;98.40;;;;;;5045141;28;21054;-72
2023/07/23 12:25:02;;;;;;;1999.90;999.90;;;22.90;98.20;;;;;;5046847;28;20433;-72
2023/07/23 12:27:29;;;;;;;1999.90;999.90;;;22.90;98.30;;;;;;5049423;28;20448;-72
2023/07/23 12:29:56;;;;;;;1999.90;999.90;;;23.20;98.90;;;;;;5050432;28;20847;-72
2023/07/23 12:32:24;;;;;;;1999.90;999.90;;;23.10;98.50;;;;;;5038544;28;20430;-72
2023/07/23 12:34:51;;;;;;;1999.90;999.90;;;23.10;98.70;;;;;;5043026;28;20947;-73
2023/07/23 12:37:18;;;;;;;1999.90;999.90;;;23.30;98.60;;;;;;5043515;28;20796;-70
2023/07/23 12:39:46;;;;;;;1999.90;999.90;;;22.90;98.90;;;;;;5036518;28;20429;-72
2023/07/23 12:42:14;;;;;;;1999.90;999.90;;;22.90;98.80;;;;;;5038098;28;20557;-70
2023/07/23 12:44:40;;;;;;;1999.90;999.90;;;22.70;98.90;;;;;;5047468;28;20518;-73
2023/07/23 12:47:07;;;;;;;1999.90;999.90;;;22.90;99.50;;;;;;5041178;28;20781;-71
2023/07/23 12:49:35;;;;;;;1999.90;999.90;;;22.90;98.90;;;;;;5045319;28;20452;-73
2023/07/23 12:52:03;;;;;;;1999.90;999.90;;;23.30;99.10;;;;;;5045691;28;20437;-72